Time;durP1;ratioP1;P1;durP2;ratioP2;P2;SDS_P1;SDS_P2;PMS_P1;PMS_P2;Temp;Humidity;BMP_temperature;BMP_pressure;BME280_temperature;BME280_humidity;BME280_pressure;Samples;Min_cycle;Max_cycle;Signal;HPM_P1;HPM_P2
2021/06/02 00:01:56;;;;;;;5.72;2.58;;;;;;;15.96;57.66;101214.56;5020478;28;20203;-71
2021/06/02 00:04:25;;;;;;;8.38;2.85;;;;;;;15.92;57.34;101218.56;5021208;28;20116;-71
2021/06/02 00:06:54;;;;;;;10.05;2.55;;;;;;;15.91;57.25;101223.94;5036111;28;20033;-71
2021/06/02 00:09:20;;;;;;;6.55;2.97;;;;;;;15.89;57.32;101221.50;5039248;28;20055;-72
2021/06/02 00:11:45;;;;;;;8.15;3.13;;;;;;;15.86;57.38;101221.91;5023365;28;20037;-71
2021/06/02 00:14:11;;;;;;;5.70;3.00;;;;;;;15.83;57.25;101219.63;5023576;28;20445;-71
2021/06/02 00:16:38;;;;;;;4.07;2.45;;;;;;;15.77;57.19;101220.34;5026906;28;20040;-72
2021/06/02 00:19:05;;;;;;;5.03;2.40;;;;;;;15.73;57.06;101216.44;5022228;28;20068;-71
2021/06/02 00:21:30;;;;;;;7.70;2.65;;;;;;;15.70;57.11;101216.81;5041018;28;20387;-71
2021/06/02 00:23:55;;;;;;;5.20;2.50;;;;;;;15.66;57.57;101218.97;5025482;28;20040;-72
2021/06/02 00:26:21;;;;;;;5.57;2.33;;;;;;;15.61;57.58;101223.91;5025870;28;20098;-72
2021/06/02 00:28:48;;;;;;;4.90;3.03;;;;;;;15.58;57.82;101224.28;5024301;28;20025;-72
2021/06/02 00:31:15;;;;;;;6.47;3.40;;;;;;;15.55;57.99;101224.63;5021874;28;20045;-71
2021/06/02 00:33:41;;;;;;;6.22;3.63;;;;;;;15.51;57.99;101221.56;5025933;28;20152;-72
2021/06/02 00:36:07;;;;;;;3.45;2.65;;;;;;;15.47;58.32;101220.28;5025560;28;20133;-71
2021/06/02 00:38:34;;;;;;;9.20;3.17;;;;;;;15.42;58.46;101220.00;5025861;28;20033;-71
2021/06/02 00:41:02;;;;;;;6.43;2.67;;;;;;;15.38;58.66;101219.53;5039192;28;20026;-71
2021/06/02 00:43:28;;;;;;;8.05;3.25;;;;;;;15.32;59.05;101214.22;5024168;28;20037;-71
2021/06/02 00:45:54;;;;;;;5.10;3.03;;;;;;;15.23;59.53;101205.63;5025603;28;20513;-71
2021/06/02 00:48:19;;;;;;;11.13;3.15;;;;;;;15.09;60.06;101211.66;5023948;28;20033;-71
2021/06/02 00:50:47;;;;;;;7.72;3.60;;;;;;;14.87;60.64;101211.47;5043115;28;20036;-72
2021/06/02 00:53:13;;;;;;;6.93;2.65;;;;;;;14.66;61.73;101204.28;5027238;28;20515;-71
2021/06/02 00:55:40;;;;;;;5.80;3.17;;;;;;;14.53;61.92;101211.84;5038740;28;20021;-71
2021/06/02 00:58:08;;;;;;;7.18;3.50;;;;;;;14.32;62.40;101204.59;5036697;28;20464;-71
2021/06/02 01:00:34;;;;;;;4.32;2.85;;;;;;;14.18;62.98;101204.34;5037320;28;20121;-72
2021/06/02 01:03:02;;;;;;;3.78;2.53;;;;;;;14.10;63.31;101206.16;5024960;28;20124;-71
2021/06/02 01:05:29;;;;;;;4.43;3.00;;;;;;;14.03;63.46;101200.81;5025437;28;20040;-75
2021/06/02 01:08:03;;;;;;;7.32;3.33;;;;;;;13.94;63.71;101197.44;5022945;28;20398;-71
2021/06/02 01:10:29;;;;;;;4.72;3.00;;;;;;;13.85;64.02;101201.03;5040522;28;20033;-71
2021/06/02 01:12:57;;;;;;;4.53;2.70;;;;;;;13.76;64.29;101205.44;5022961;28;20018;-71
2021/06/02 01:15:23;;;;;;;4.20;2.85;;;;;;;13.66;64.68;101207.44;5022649;28;20029;-71
2021/06/02 01:17:48;;;;;;;5.80;3.17;;;;;;;13.62;65.00;101208.75;5024697;28;20033;-71
2021/06/02 01:20:15;;;;;;;8.75;3.38;;;;;;;13.64;64.75;101206.78;5025414;28;20079;-71
2021/06/02 01:22:41;;;;;;;5.47;3.25;;;;;;;13.66;64.69;101202.22;5024897;28;20119;-71
2021/06/02 01:25:10;;;;;;;5.35;3.10;;;;;;;13.73;64.44;101205.81;5024224;28;20722;-71
2021/06/02 01:27:36;;;;;;;5.00;3.00;;;;;;;13.77;64.28;101204.47;5021100;28;20634;-72
2021/06/02 01:30:03;;;;;;;4.70;3.50;;;;;;;13.82;63.92;101207.41;5022294;28;20037;-71
2021/06/02 01:33:06;;;;;;;5.20;3.17;;;;;;;13.80;64.41;101203.31;5038547;28;20065;-71
2021/06/02 01:36:03;;;;;;;7.35;3.20;;;;;;;13.70;64.77;101198.31;5039368;28;20044;-71
2021/06/02 01:39:22;;;;;;;6.53;3.80;;;;;;;13.55;65.66;101198.16;5038163;28;20237;-71
2021/06/02 01:41:50;;;;;;;6.78;3.47;;;;;;;13.51;65.78;101198.69;5027464;28;20033;-71
2021/06/02 01:44:28;;;;;;;6.68;3.53;;;;;;;13.54;65.67;101195.72;5023697;28;20033;-72
2021/06/02 01:47:24;;;;;;;6.05;3.63;;;;;;;13.60;65.39;101198.50;5018616;28;20517;-72
2021/06/02 01:50:08;;;;;;;6.47;3.55;;;;;;;13.66;65.30;101194.41;5017817;28;20493;-72
2021/06/02 01:53:19;;;;;;;7.35;3.47;;;;;;;13.70;65.23;101193.09;5021619;28;20175;-72
2021/06/02 01:56:08;;;;;;;6.85;3.03;;;;;;;13.69;65.05;101186.25;5011134;28;20045;-71
2021/06/02 01:59:12;;;;;;;4.45;3.22;;;;;;;13.58;65.37;101186.59;5033736;28;20303;-72
2021/06/02 02:02:12;;;;;;;5.47;3.10;;;;;;;13.31;66.44;101190.41;5017453;28;20045;-72
2021/06/02 02:05:14;;;;;;;7.18;3.78;;;;;;;13.10;67.20;101196.88;5021119;28;20056;-71
2021/06/02 02:08:09;;;;;;;8.77;3.70;;;;;;;12.92;67.68;101191.84;5021596;28;20034;-71
2021/06/02 02:10:42;;;;;;;5.00;3.40;;;;;;;12.84;68.12;101191.81;5015499;28;20045;-72
2021/06/02 02:13:32;;;;;;;5.90;3.50;;;;;;;12.80;68.19;101190.50;5042074;28;20111;-72
2021/06/02 02:16:23;;;;;;;5.78;3.60;;;;;;;12.76;68.15;101190.03;5033666;28;20172;-72
2021/06/02 02:18:57;;;;;;;6.05;3.60;;;;;;;12.77;68.33;101188.22;5023363;28;20018;-71
2021/06/02 02:21:38;;;;;;;6.32;3.58;;;;;;;12.77;68.16;101193.44;5038216;28;20111;-72
2021/06/02 02:24:10;;;;;;;5.70;3.30;;;;;;;12.80;68.02;101190.50;5020029;28;20033;-72
2021/06/02 02:26:49;;;;;;;8.13;3.88;;;;;;;12.79;68.39;101189.72;5021121;28;20042;-72
2021/06/02 02:29:24;;;;;;;8.43;3.90;;;;;;;12.77;68.25;101186.47;5037788;28;20676;-72
2021/06/02 02:32:11;;;;;;;7.28;3.75;;;;;;;12.82;68.03;101188.56;5023502;28;20040;-72
2021/06/02 02:34:56;;;;;;;6.70;3.88;;;;;;;12.88;67.75;101184.50;5021938;28;20051;-72
2021/06/02 02:38:03;;;;;;;7.40;3.60;;;;;;;12.89;67.61;101186.16;5021155;28;20478;-71
2021/06/02 02:40:47;;;;;;;6.15;3.70;;;;;;;12.77;68.06;101185.63;5009438;28;20045;-71
2021/06/02 02:43:22;;;;;;;8.07;3.63;;;;;;;12.63;68.27;101187.06;5037680;28;20040;-72
2021/06/02 02:46:12;;;;;;;4.53;3.33;;;;;;;12.58;68.35;101187.56;5024853;28;20021;-72
2021/06/02 02:48:46;;;;;;;5.47;3.38;;;;;;;12.61;68.49;101199.44;5023945;28;20095;-72
2021/06/02 02:51:23;;;;;;;8.10;3.80;;;;;;;12.63;68.20;101193.09;5038847;28;20029;-72
2021/06/02 02:54:01;;;;;;;5.55;3.75;;;;;;;12.67;68.06;101204.00;5039301;28;20484;-71
2021/06/02 02:57:02;;;;;;;6.82;3.92;;;;;;;12.65;68.14;101206.75;5026807;28;20120;-71
2021/06/02 02:59:30;;;;;;;7.28;3.58;;;;;;;12.50;68.86;101210.13;5025264;28;20045;-72
2021/06/02 03:02:03;;;;;;;5.95;3.47;;;;;;;12.31;69.25;101209.41;5026983;28;20557;-71
2021/06/02 03:04:36;;;;;;;7.05;3.92;;;;;;;12.23;69.41;101204.19;5026283;28;20041;-72
2021/06/02 03:07:03;;;;;;;;;;;;;;;12.16;70.01;101209.19;5043520;28;20100;-71
2021/06/02 03:09:31;;;;;;;7.75;4.15;;;;;;;12.13;70.25;101209.53;5025515;28;19916;-71
2021/06/02 03:12:27;;;;;;;5.22;3.72;;;;;;;12.10;70.22;101212.44;5027094;28;20106;-72
2021/06/02 03:15:06;;;;;;;5.40;3.33;;;;;;;12.02;70.51;101205.41;5040636;28;20061;-71
2021/06/02 03:17:54;;;;;;;7.93;3.80;;;;;;;12.02;70.55;101202.81;5021952;28;20088;-72
2021/06/02 03:20:24;;;;;;;7.20;4.43;;;;;;;12.10;69.96;101209.84;5039570;28;20587;-72
2021/06/02 03:23:13;;;;;;;10.45;4.00;;;;;;;12.17;69.77;101208.25;5041491;28;20033;-71
2021/06/02 03:25:43;;;;;;;5.65;3.70;;;;;;;12.24;69.46;101208.41;5025301;28;20028;-72
2021/06/02 03:28:11;;;;;;;5.78;3.47;;;;;;;12.30;69.33;101201.78;5024980;28;20036;-71
2021/06/02 03:30:50;;;;;;;6.95;3.70;;;;;;;12.34;69.14;101203.91;5026503;28;20068;-71
2021/06/02 03:33:49;;;;;;;6.63;3.80;;;;;;;12.40;69.14;101210.28;5021925;28;20394;-72
2021/06/02 03:36:40;;;;;;;8.73;4.43;;;;;;;12.38;69.50;101217.41;5026441;28;20128;-72
2021/06/02 03:39:16;;;;;;;8.48;3.97;;;;;;;12.17;70.13;101221.25;5041086;28;20029;-71
2021/06/02 03:42:00;;;;;;;9.95;4.07;;;;;;;12.05;70.84;101225.06;5025787;28;20487;-72
2021/06/02 03:44:42;;;;;;;6.28;3.90;;;;;;;11.93;70.87;101226.31;5026989;28;20127;-72
2021/06/02 03:47:46;;;;;;;5.85;3.65;;;;;;;11.86;70.86;101221.69;5021016;28;20664;-71
2021/06/02 03:50:23;;;;;;;7.18;4.15;;;;;;;11.84;71.03;101222.81;5024332;28;20041;-72
2021/06/02 03:52:49;;;;;;;9.38;4.00;;;;;;;11.90;70.95;101219.63;5026245;28;20052;-72
2021/06/02 03:55:29;;;;;;;5.68;3.65;;;;;;;11.98;70.38;101224.06;5042425;28;20399;-72
2021/06/02 03:57:58;;;;;;;8.57;4.10;;;;;;;12.05;70.16;101228.50;5024669;28;20021;-72
2021/06/02 04:00:35;;;;;;;10.68;4.40;;;;;;;12.11;70.20;101229.66;5026062;28;20564;-71
2021/06/02 04:03:00;;;;;;;9.40;4.07;;;;;;;12.04;70.85;101226.06;5040949;28;20434;-71
2021/06/02 04:05:53;;;;;;;5.25;4.00;;;;;;;11.97;70.99;101222.44;5018622;28;20496;-71
2021/06/02 04:08:40;;;;;;;7.53;3.72;;;;;;;11.90;71.74;101224.03;5040115;28;20121;-72
2021/06/02 04:11:18;;;;;;;5.72;3.50;;;;;;;11.85;71.93;101221.88;5038356;28;20033;-72
2021/06/02 04:14:01;;;;;;;5.80;3.67;;;;;;;11.81;71.86;101231.75;5005109;28;20088;-71
2021/06/02 04:16:32;;;;;;;;;;;;;;;11.79;71.76;101228.50;5029994;28;20521;-71
2021/06/02 04:19:09;;;;;;;9.10;4.60;;;;;;;11.79;72.20;101225.06;5047061;28;19913;-72
2021/06/02 04:21:43;;;;;;;8.93;3.95;;;;;;;11.81;72.10;101223.13;5025258;28;20037;-72
2021/06/02 04:24:13;;;;;;;6.63;4.03;;;;;;;11.88;71.48;101226.75;5025642;28;20041;-71
2021/06/02 04:26:39;;;;;;;7.45;4.20;;;;;;;11.97;71.16;101215.44;5025132;28;20032;-72
2021/06/02 04:29:08;;;;;;;8.98;4.05;;;;;;;12.06;70.87;101221.50;5021512;28;20091;-72
2021/06/02 04:31:34;;;;;;;10.40;4.72;;;;;;;12.14;70.50;101215.53;5039497;28;20029;-71
2021/06/02 04:34:00;;;;;;;11.45;4.43;;;;;;;12.21;70.30;101217.34;5022842;28;20037;-72
2021/06/02 04:36:27;;;;;;;7.25;5.07;;;;;;;12.27;70.84;101221.09;5017837;28;20106;-72
2021/06/02 04:38:56;;;;;;;11.85;4.60;;;;;;;12.33;71.11;101219.66;5042574;28;20547;-72
2021/06/02 04:41:26;;;;;;;9.70;4.47;;;;;;;12.40;70.64;101218.88;5024351;28;20070;-72
2021/06/02 04:43:53;;;;;;;11.40;4.43;;;;;;;12.46;70.73;101214.84;5024490;28;20045;-72
2021/06/02 04:46:20;;;;;;;5.55;4.15;;;;;;;12.53;70.42;101215.03;5023765;28;20029;-72
2021/06/02 04:48:52;;;;;;;7.07;4.55;;;;;;;12.59;70.40;101210.00;5040438;28;20037;-72
2021/06/02 04:52:00;;;;;;;8.77;5.35;;;;;;;12.68;69.92;101210.84;5021931;28;20561;-71
2021/06/02 04:55:03;;;;;;;9.13;4.35;;;;;;;12.79;70.26;101214.91;5034202;28;20072;-71
2021/06/02 04:57:56;;;;;;;8.95;4.40;;;;;;;12.88;69.61;101213.94;5014697;28;20052;-72
2021/06/02 05:01:00;;;;;;;9.23;4.47;;;;;;;13.00;69.70;101210.06;5017116;28;20065;-72
2021/06/02 05:03:44;;;;;;;8.57;4.32;;;;;;;13.17;69.53;101217.88;5024249;28;20056;-72
2021/06/02 05:06:35;;;;;;;7.13;4.55;;;;;;;13.29;70.27;101211.34;5024330;28;20266;-71
2021/06/02 05:09:12;;;;;;;12.10;5.18;;;;;;;13.46;70.20;101216.59;5021360;28;20033;-70
2021/06/02 05:11:56;;;;;;;10.65;4.72;;;;;;;13.68;67.54;101215.91;5025818;28;20113;-72
2021/06/02 05:14:24;;;;;;;9.57;5.10;;;;;;;13.96;64.81;101218.13;5023378;28;20544;-72
2021/06/02 05:16:59;;;;;;;9.98;4.63;;;;;;;14.30;62.62;101211.78;5023428;28;20033;-72
2021/06/02 05:22:42;;;;;;;9.25;4.43;;;;;;;14.86;59.93;101216.88;5021126;28;20144;-71
2021/06/02 05:26:04;;;;;;;6.90;4.85;;;;;;;15.08;59.56;101216.03;5012602;28;20179;-72
2021/06/02 05:29:08;;;;;;;13.57;4.40;;;;;;;15.33;58.23;101221.91;5022154;28;20057;-72
2021/06/02 05:32:27;;;;;;;8.15;4.70;;;;;;;15.65;56.61;101221.75;5016891;28;20037;-72
2021/06/02 05:35:24;;;;;;;7.40;4.15;;;;;;;15.80;55.49;101221.78;4980172;28;20038;-72
2021/06/02 05:38:08;;;;;;;7.22;4.55;;;;;;;16.06;55.32;101221.34;5021988;28;20113;-72
2021/06/02 05:40:45;;;;;;;6.35;4.30;;;;;;;16.32;55.11;101221.66;5032170;28;20045;-71
2021/06/02 05:43:47;;;;;;;10.90;4.20;;;;;;;16.53;53.62;101220.88;5042285;28;20041;-71
2021/06/02 05:46:49;;;;;;;8.68;3.63;;;;;;;16.83;53.63;101212.94;5023421;28;20474;-72
2021/06/02 05:49:34;;;;;;;6.60;4.18;;;;;;;17.14;52.32;101219.69;5039605;28;20030;-71
2021/06/02 05:52:08;;;;;;;7.25;4.53;;;;;;;17.45;51.77;101214.06;5017976;28;20582;-71
2021/06/02 05:55:09;;;;;;;9.00;4.25;;;;;;;17.73;51.18;101207.19;5026151;28;20449;-72
2021/06/02 05:58:25;;;;;;;7.45;4.38;;;;;;;17.94;50.43;101207.13;5002749;28;20029;-73
2021/06/02 06:01:30;;;;;;;8.68;4.55;;;;;;;17.97;49.41;101205.91;5038213;28;20054;-72
2021/06/02 06:04:29;;;;;;;5.03;4.20;;;;;;;18.39;48.91;101202.25;5024533;28;20033;-72
2021/06/02 06:07:01;;;;;;;7.72;3.85;;;;;;;18.73;48.44;101203.13;5022872;28;20099;-73
2021/06/02 06:09:33;;;;;;;6.78;4.13;;;;;;;19.14;48.10;101209.25;5038956;28;20037;-73
2021/06/02 06:12:17;;;;;;;11.23;4.18;;;;;;;19.38;47.28;101202.53;5023481;28;20582;-73
2021/06/02 06:15:20;;;;;;;7.47;4.57;;;;;;;19.57;46.91;101203.50;5021128;28;20037;-73
2021/06/02 06:18:02;;;;;;;8.68;4.10;;;;;;;19.83;47.18;101205.28;5022913;28;20041;-72
2021/06/02 06:21:00;;;;;;;9.40;4.05;;;;;;;20.16;46.75;101205.16;5032856;28;20080;-72
2021/06/02 06:23:41;;;;;;;7.28;3.97;;;;;;;20.27;45.78;101203.72;5023751;28;20115;-74
2021/06/02 06:26:39;;;;;;;7.10;4.22;;;;;;;20.31;45.46;101202.25;5023986;28;20383;-73
2021/06/02 06:29:11;;;;;;;5.95;3.80;;;;;;;20.52;44.34;101198.50;5038514;28;20132;-73
2021/06/02 06:31:42;;;;;;;7.53;4.00;;;;;;;20.34;43.96;101201.84;5047621;28;20684;-73
2021/06/02 06:34:12;;;;;;;6.57;3.38;;;;;;;20.55;43.56;101199.88;5038285;28;20026;-71
2021/06/02 06:36:39;;;;;;;9.73;3.80;;;;;;;20.56;44.04;101201.50;5040436;28;20025;-73
2021/06/02 06:39:40;;;;;;;11.70;3.20;;;;;;;20.53;43.33;101199.28;5042441;28;20034;-73
2021/06/02 06:42:07;;;;;;;9.07;3.42;;;;;;;21.14;43.06;101197.88;5025278;28;20026;-74
2021/06/02 06:44:34;;;;;;;9.70;3.65;;;;;;;21.06;42.25;101203.41;5026460;28;20045;-72
2021/06/02 06:47:04;;;;;;;7.18;4.18;;;;;;;21.30;41.73;101202.56;5044416;28;20477;-73
2021/06/02 06:49:31;;;;;;;3.40;3.10;;;;;;;21.62;41.78;101204.31;5041661;28;20025;-73
2021/06/02 06:51:59;;;;;;;8.60;3.28;;;;;;;22.01;41.18;101196.97;5043563;28;20049;-72
2021/06/02 06:54:25;;;;;;;12.73;4.03;;;;;;;22.15;40.79;101204.50;5043127;28;20041;-73
2021/06/02 06:56:52;;;;;;;6.93;3.33;;;;;;;22.62;40.95;101200.44;5042498;28;20052;-73
2021/06/02 06:59:19;;;;;;;10.93;3.78;;;;;;;23.08;39.51;101198.94;5025929;28;20081;-73
2021/06/02 07:01:45;;;;;;;5.38;3.45;;;;;;;23.15;39.90;101202.25;5025785;28;20055;-74
2021/06/02 07:04:11;;;;;;;8.43;4.13;;;;;;;23.33;38.78;101203.97;5027239;28;20107;-74
2021/06/02 07:06:38;;;;;;;8.82;4.18;;;;;;;23.35;37.45;101203.75;5020424;28;20430;-74
2021/06/02 07:09:08;;;;;;;4.72;3.25;;;;;;;23.28;38.37;101203.84;5027469;28;20045;-73
2021/06/02 07:11:40;;;;;;;5.93;3.28;;;;;;;23.69;37.81;101196.78;5024621;28;20049;-73
2021/06/02 07:14:06;;;;;;;7.63;3.40;;;;;;;24.10;37.06;101200.25;5027429;28;20044;-72
2021/06/02 07:16:36;;;;;;;9.07;3.38;;;;;;;23.94;36.28;101203.66;5025204;28;20804;-72
2021/06/02 07:19:02;;;;;;;6.15;2.60;;;;;;;24.31;36.38;101203.28;5021927;28;20236;-73
2021/06/02 07:21:29;;;;;;;6.80;2.80;;;;;;;24.37;36.30;101210.28;5026636;28;20037;-74
2021/06/02 07:23:54;;;;;;;4.68;3.00;;;;;;;24.64;36.70;101203.34;5040860;28;20043;-75
2021/06/02 07:26:20;;;;;;;7.28;2.95;;;;;;;24.50;37.00;101199.38;5024335;28;20076;-73
2021/06/02 07:28:45;;;;;;;9.60;2.90;;;;;;;24.93;35.67;101197.97;5023919;28;20041;-74
2021/06/02 07:31:11;;;;;;;5.38;2.75;;;;;;;25.36;35.83;101195.69;5023651;28;20025;-74
2021/06/02 07:33:37;;;;;;;5.97;3.03;;;;;;;25.42;34.60;101190.19;5021074;28;20036;-74
2021/06/02 07:36:03;;;;;;;5.93;2.83;;;;;;;25.57;34.47;101188.78;5026192;28;20464;-75
2021/06/02 07:38:29;;;;;;;8.23;2.83;;;;;;;25.11;34.99;101190.78;5025738;28;20033;-75
2021/06/02 07:40:55;;;;;;;7.95;2.78;;;;;;;25.31;34.51;101191.09;5041399;28;20497;-74
2021/06/02 07:43:21;;;;;;;9.65;2.72;;;;;;;25.47;34.44;101189.47;5041002;28;20078;-74
2021/06/02 07:45:46;;;;;;;6.85;2.90;;;;;;;25.31;33.03;101190.31;5041694;28;20033;-73
2021/06/02 07:48:12;;;;;;;4.82;2.50;;;;;;;25.70;33.30;101188.41;5028132;28;20095;-75
2021/06/02 07:50:38;;;;;;;7.05;2.95;;;;;;;26.18;33.68;101184.19;5038369;28;20163;-74
2021/06/02 07:53:04;;;;;;;6.47;2.83;;;;;;;26.20;35.36;101190.03;5047412;28;20489;-75
2021/06/02 07:55:29;;;;;;;4.00;3.00;;;;;;;26.24;34.20;101182.38;5034477;28;20171;-73
2021/06/02 07:57:55;;;;;;;5.55;2.67;;;;;;;26.64;34.77;101183.81;5040957;28;20037;-75
2021/06/02 08:00:20;;;;;;;4.32;3.35;;;;;;;26.73;33.74;101176.13;5024956;28;20139;-75
2021/06/02 08:02:46;;;;;;;5.55;2.40;;;;;;;26.84;33.74;101172.50;5022812;28;20204;-75
2021/06/02 08:05:14;;;;;;;8.02;2.88;;;;;;;27.14;32.83;101179.88;5027131;28;20033;-75
2021/06/02 08:07:44;;;;;;;6.30;2.90;;;;;;;27.21;31.37;101178.84;5040091;28;20029;-75
2021/06/02 08:10:11;;;;;;;5.45;2.95;;;;;;;27.55;31.01;101169.44;5041281;28;20373;-75
2021/06/02 08:12:36;;;;;;;6.68;3.00;;;;;;;27.75;31.31;101170.56;5041397;28;20095;-75
2021/06/02 08:15:04;;;;;;;5.30;2.47;;;;;;;27.50;30.66;101166.78;5040660;28;20045;-75
2021/06/02 08:17:29;;;;;;;6.18;3.05;;;;;;;27.38;32.19;101168.84;5021430;28;20438;-74
2021/06/02 08:19:54;;;;;;;5.82;2.90;;;;;;;27.22;30.99;101178.59;5022660;28;20103;-74
2021/06/02 08:22:20;;;;;;;8.13;3.13;;;;;;;27.11;31.28;101180.38;5024784;28;20045;-75
2021/06/02 08:24:45;;;;;;;4.07;2.60;;;;;;;27.60;30.75;101176.66;5023090;28;20025;-74
2021/06/02 08:27:12;;;;;;;6.28;2.60;;;;;;;28.15;31.05;101169.88;5039423;28;20132;-74
2021/06/02 08:29:38;;;;;;;7.03;2.80;;;;;;;27.73;30.27;101172.69;5025875;28;20437;-75
2021/06/02 08:32:04;;;;;;;6.60;2.45;;;;;;;27.81;31.22;101172.19;5022447;28;20086;-75
2021/06/02 08:34:29;;;;;;;4.57;2.45;;;;;;;28.34;31.00;101182.69;5024266;28;20037;-75
2021/06/02 08:36:55;;;;;;;5.70;2.63;;;;;;;28.64;29.26;101183.78;5023155;28;20037;-74
2021/06/02 08:39:21;;;;;;;4.63;2.53;;;;;;;28.34;29.73;101185.34;5040498;28;20128;-75
2021/06/02 08:41:49;;;;;;;6.82;2.92;;;;;;;28.78;29.43;101179.47;5041327;28;20017;-75
2021/06/02 08:44:16;;;;;;;6.20;2.70;;;;;;;28.71;26.42;101185.09;5040922;28;20565;-76
2021/06/02 08:46:41;;;;;;;6.25;2.15;;;;;;;28.54;27.57;101190.72;5038990;28;20032;-74
2021/06/02 08:49:07;;;;;;;6.97;2.67;;;;;;;28.54;26.58;101184.59;5042246;28;20029;-75
2021/06/02 08:51:34;;;;;;;5.55;2.15;;;;;;;29.00;27.46;101179.19;5017733;28;20033;-76
2021/06/02 08:54:00;;;;;;;6.72;2.42;;;;;;;29.18;28.23;101185.84;5029555;28;20037;-75
2021/06/02 08:56:28;;;;;;;5.15;2.60;;;;;;;29.14;28.67;101176.78;5032796;28;20040;-74
2021/06/02 08:58:53;;;;;;;7.63;2.33;;;;;;;29.42;28.62;101174.53;5040854;28;20041;-75
2021/06/02 09:01:18;;;;;;;12.13;2.75;;;;;;;29.61;29.30;101175.53;5025965;28;20411;-76
2021/06/02 09:03:44;;;;;;;5.93;2.63;;;;;;;29.43;29.78;101176.94;5025841;28;20086;-74
2021/06/02 09:06:10;;;;;;;4.72;2.45;;;;;;;29.45;29.19;101174.00;5023005;28;20037;-74
2021/06/02 09:08:39;;;;;;;8.23;2.83;;;;;;;29.70;28.84;101173.06;5025721;28;20024;-75
2021/06/02 09:11:14;;;;;;;3.03;2.05;;;;;;;29.76;28.68;101174.69;5025429;28;20040;-73
2021/06/02 09:13:41;;;;;;;3.72;2.20;;;;;;;29.55;27.21;101175.81;5022805;28;20048;-75
2021/06/02 09:16:30;;;;;;;4.25;2.08;;;;;;;29.82;26.75;101172.75;5023797;28;20065;-75
2021/06/02 09:19:04;;;;;;;3.97;1.63;;;;;;;29.79;27.16;101171.44;5021770;28;20033;-75
2021/06/02 09:21:31;;;;;;;7.07;2.22;;;;;;;29.91;26.66;101179.09;5024082;28;20132;-76
2021/06/02 09:23:58;;;;;;;3.67;2.30;;;;;;;29.32;25.80;101172.69;5023704;28;20037;-74
2021/06/02 09:26:24;;;;;;;5.22;2.60;;;;;;;29.40;26.33;101176.69;5024874;28;20052;-75
2021/06/02 09:29:11;;;;;;;2.33;1.75;;;;;;;29.63;26.76;101164.53;5023904;28;20555;-74
2021/06/02 09:31:46;;;;;;;4.47;1.73;;;;;;;29.98;25.75;101166.25;5038253;28;20033;-74
2021/06/02 09:34:15;;;;;;;3.35;2.08;;;;;;;29.71;23.22;101166.66;5022730;28;20414;-75
2021/06/02 09:36:42;;;;;;;4.93;2.00;;;;;;;29.45;25.54;101174.00;5024521;28;20478;-75
2021/06/02 09:39:13;;;;;;;7.35;1.90;;;;;;;29.78;25.97;101169.03;5038430;28;20055;-75
2021/06/02 09:41:51;;;;;;;8.35;2.35;;;;;;;29.53;25.73;101169.94;5038743;28;20371;-76
2021/06/02 09:44:24;;;;;;;6.35;1.65;;;;;;;29.40;23.42;101166.00;5017027;28;20053;-75
2021/06/02 09:46:59;;;;;;;3.75;1.88;;;;;;;29.76;25.14;101164.00;5016234;28;20083;-74
2021/06/02 09:49:25;;;;;;;6.25;1.90;;;;;;;30.01;27.39;101159.56;5023134;28;20029;-75
2021/06/02 09:51:52;;;;;;;6.57;1.80;;;;;;;29.70;24.36;101163.19;5022509;28;20029;-76
2021/06/02 09:54:22;;;;;;;4.28;2.08;;;;;;;29.82;24.91;101168.22;5039737;28;20076;-76
2021/06/02 09:56:48;;;;;;;2.80;1.90;;;;;;;29.70;22.52;101170.38;5024365;28;20029;-75
2021/06/02 09:59:15;;;;;;;3.72;1.80;;;;;;;29.38;22.17;101165.47;5023446;28;20033;-74
2021/06/02 10:01:58;;;;;;;1.95;1.50;;;;;;;29.51;24.47;101157.66;5022939;28;20044;-74
2021/06/02 10:04:32;;;;;;;5.25;1.58;;;;;;;29.86;25.01;101166.59;5022174;28;20076;-75
2021/06/02 10:06:59;;;;;;;6.05;1.83;;;;;;;29.80;22.70;101153.53;5028281;28;20120;-75
2021/06/02 10:09:26;;;;;;;5.22;1.42;;;;;;;29.41;22.12;101165.72;5026396;28;20039;-74
2021/06/02 10:12:03;;;;;;;4.40;1.80;;;;;;;29.66;23.08;101158.66;5043678;28;20068;-75
2021/06/02 10:14:30;;;;;;;6.70;1.83;;;;;;;29.70;21.69;101155.19;5044382;28;20367;-75
2021/06/02 10:16:55;;;;;;;5.90;1.70;;;;;;;29.50;22.19;101158.75;5028793;28;20017;-75
2021/06/02 10:19:42;;;;;;;6.40;2.00;;;;;;;29.01;21.25;101166.63;5024794;28;20041;-75
2021/06/02 10:22:21;;;;;;;4.55;1.85;;;;;;;28.77;21.78;101158.44;5010055;28;20041;-74
2021/06/02 10:24:49;;;;;;;3.78;1.50;;;;;;;29.16;22.90;101155.13;5026825;28;20044;-76
2021/06/02 10:27:14;;;;;;;3.03;1.70;;;;;;;29.30;22.23;101154.28;5041300;28;20072;-75
2021/06/02 10:29:40;;;;;;;8.20;2.10;;;;;;;28.99;21.63;101155.41;5045510;28;20056;-72
2021/06/02 10:32:06;;;;;;;3.72;1.92;;;;;;;28.76;21.70;101159.47;5040485;28;21238;-74
2021/06/02 10:34:32;;;;;;;5.82;1.70;;;;;;;28.80;22.98;101158.69;5043633;28;20411;-75
2021/06/02 10:36:57;;;;;;;4.35;1.50;;;;;;;28.84;22.82;101157.06;5028545;28;20044;-74
2021/06/02 10:39:25;;;;;;;3.13;1.48;;;;;;;29.14;25.13;101163.44;5028678;28;20272;-75
2021/06/02 10:41:54;;;;;;;2.95;1.73;;;;;;;29.53;23.60;101167.28;5028156;28;20033;-74
2021/06/02 10:44:30;;;;;;;5.07;1.90;;;;;;;29.40;21.88;101168.66;5023729;28;20701;-75
2021/06/02 10:46:57;;;;;;;1.90;1.55;;;;;;;29.82;21.82;101156.72;5029601;28;20429;-74
2021/06/02 10:49:28;;;;;;;2.05;1.42;;;;;;;29.65;20.59;101157.06;5022789;28;20025;-73
2021/06/02 10:51:56;;;;;;;3.53;1.90;;;;;;;29.50;21.27;101158.75;5024922;28;20033;-74
2021/06/02 10:54:36;;;;;;;4.00;1.60;;;;;;;29.19;21.47;101160.72;4986924;28;20135;-71
2021/06/02 10:57:01;;;;;;;5.00;1.60;;;;;;;29.34;22.69;101151.88;4985083;28;20088;-72
2021/06/02 10:59:37;;;;;;;8.20;2.50;;;;;;;29.17;21.06;101154.88;4985697;28;20543;-71
2021/06/02 11:02:10;;;;;;;2.95;1.80;;;;;;;29.13;22.76;101159.16;4985652;28;20302;-72
2021/06/02 11:04:38;;;;;;;8.45;2.28;;;;;;;29.18;22.83;101153.00;5000173;28;20037;-72
2021/06/02 11:07:21;;;;;;;7.25;2.03;;;;;;;29.38;20.87;101155.59;4985577;28;20144;-71
2021/06/02 11:10:00;;;;;;;2.60;1.67;;;;;;;29.39;22.16;101161.75;4985206;28;20331;-73
2021/06/02 11:12:50;;;;;;;2.55;1.98;;;;;;;29.33;20.93;101155.63;4999954;28;20040;-72
2021/06/02 11:15:34;;;;;;;3.63;1.65;;;;;;;29.18;20.75;101158.31;4983376;28;20427;-72
2021/06/02 11:18:05;;;;;;;6.18;2.40;;;;;;;29.22;21.57;101160.19;4986346;28;20913;-72
2021/06/02 11:20:54;;;;;;;4.13;1.95;;;;;;;29.27;21.56;101156.69;5001004;28;20041;-73
2021/06/02 11:23:42;;;;;;;3.05;1.73;;;;;;;29.31;21.46;101150.56;5001144;28;20207;-72
2021/06/02 11:26:28;;;;;;;5.68;1.80;;;;;;;29.51;20.81;101148.84;4986167;28;20127;-73
2021/06/02 11:28:55;;;;;;;4.22;1.95;;;;;;;29.48;21.69;101144.06;4984286;28;20049;-73
2021/06/02 11:31:29;;;;;;;4.85;1.67;;;;;;;29.34;21.42;101151.06;4985755;28;20038;-73
2021/06/02 11:34:33;;;;;;;4.75;1.80;;;;;;;29.56;21.77;101150.72;5001697;28;20045;-73
2021/06/02 11:37:00;;;;;;;4.88;1.63;;;;;;;29.77;20.97;101144.19;4984165;28;20061;-72
2021/06/02 11:39:25;;;;;;;3.10;1.48;;;;;;;29.69;21.57;101144.75;5001612;28;20033;-72
2021/06/02 11:41:51;;;;;;;2.70;1.70;;;;;;;29.56;18.59;101150.72;5001861;28;20549;-72
2021/06/02 11:44:17;;;;;;;6.00;1.50;;;;;;;29.85;20.07;101148.16;4984016;28;20048;-72
2021/06/02 11:46:48;;;;;;;2.50;1.52;;;;;;;29.65;19.17;101149.06;4984501;28;20690;-71
2021/06/02 11:49:24;;;;;;;5.20;1.67;;;;;;;29.49;20.19;101145.66;4982661;28;20631;-73
2021/06/02 11:51:50;;;;;;;5.47;1.42;;;;;;;29.28;20.00;101140.41;4998367;28;20592;-72
2021/06/02 11:54:15;;;;;;;4.50;1.80;;;;;;;29.36;21.64;101141.72;4980641;28;20041;-71
2021/06/02 11:56:40;;;;;;;4.03;1.40;;;;;;;29.49;21.54;101145.66;4983031;28;20037;-72
2021/06/02 11:59:06;;;;;;;3.47;1.52;;;;;;;29.57;21.01;101145.06;4982350;28;20041;-73
2021/06/02 12:01:31;;;;;;;1.75;1.52;;;;;;;29.74;20.08;101142.06;4982295;28;20088;-72
2021/06/02 12:03:57;;;;;;;6.03;1.70;;;;;;;29.26;20.67;101144.44;4997850;28;20033;-72